Time;durP1;ratioP1;P1;durP2;ratioP2;P2;SDS_P1;SDS_P2;PMS_P1;PMS_P2;Temp;Humidity;BMP_temperature;BMP_pressure;BME280_temperature;BME280_humidity;BME280_pressure;Samples;Min_cycle;Max_cycle;Signal;HPM_P1;HPM_P2
2023/12/17 00:00:19;;;;;;;13.40;6.03;;;;;;;;;;5116187;28;20409;-79
2023/12/17 00:02:45;;;;;;;12.67;5.87;;;;;;;;;;5118249;28;20039;-80
2023/12/17 00:05:10;;;;;;;17.80;6.37;;;;;;;;;;5107644;28;20027;-80
2023/12/17 00:07:37;;;;;;;14.87;7.10;;;;;;;;;;5113541;28;20028;-79
2023/12/17 00:10:06;;;;;;;21.43;8.13;;;;;;;;;;5115782;28;20067;-79
2023/12/17 00:12:32;;;;;;;23.00;8.13;;;;;;;;;;5098288;28;20027;-80
2023/12/17 00:14:58;;;;;;;23.43;6.70;;;;;;;;;;5111679;28;20062;-80
2023/12/17 00:17:26;;;;;;;16.03;6.57;;;;;;;;;;5091499;28;20402;-79
2023/12/17 00:19:52;;;;;;;20.50;6.93;;;;;;;;;;5110352;27;20035;-79
2023/12/17 00:22:18;;;;;;;14.30;6.00;;;;;;;;;;5117296;28;20528;-80
2023/12/17 00:24:44;;;;;;;17.63;6.37;;;;;;;;;;5099075;28;20066;-79
2023/12/17 00:27:14;;;;;;;18.53;5.90;;;;;;;;;;5113848;28;20061;-79
2023/12/17 00:29:43;;;;;;;16.77;6.37;;;;;;;;;;5117695;27;20127;-80
2023/12/17 00:32:09;;;;;;;16.00;6.23;;;;;;;;;;5099040;28;20115;-79
2023/12/17 00:34:35;;;;;;;17.60;6.90;;;;;;;;;;5097276;28;20122;-80
2023/12/17 00:37:01;;;;;;;12.07;5.53;;;;;;;;;;5115873;28;20028;-79
2023/12/17 00:39:27;;;;;;;13.77;5.80;;;;;;;;;;5114178;28;20114;-80
2023/12/17 00:41:53;;;;;;;17.97;8.40;;;;;;;;;;5096910;28;20469;-80
2023/12/17 00:44:19;;;;;;;17.97;7.20;;;;;;;;;;5090754;28;20090;-78
2023/12/17 00:46:47;;;;;;;13.07;5.80;;;;;;;;;;5082940;28;20052;-79
2023/12/17 00:49:15;;;;;;;15.53;5.27;;;;;;;;;;5086833;28;20027;-80
2023/12/17 00:51:41;;;;;;;18.00;5.97;;;;;;;;;;5107153;28;20024;-80
2023/12/17 00:54:07;;;;;;;15.60;6.10;;;;;;;;;;5100858;28;20078;-80
2023/12/17 00:56:33;;;;;;;17.87;6.97;;;;;;;;;;5098882;28;20025;-80
2023/12/17 00:58:59;;;;;;;14.53;5.77;;;;;;;;;;5097818;28;20075;-80
2023/12/17 01:01:26;;;;;;;18.13;6.20;;;;;;;;;;5102343;28;20028;-80
2023/12/17 01:03:52;;;;;;;11.40;4.90;;;;;;;;;;5089184;28;20035;-79
2023/12/17 01:06:18;;;;;;;10.10;5.43;;;;;;;;;;5089421;28;20025;-80
2023/12/17 01:08:43;;;;;;;16.33;5.70;;;;;;;;;;5100493;28;20053;-79
2023/12/17 01:11:19;;;;;;;11.97;5.30;;;;;;;;;;5101566;28;20036;-79
2023/12/17 01:13:47;;;;;;;13.90;5.93;;;;;;;;;;5103569;28;21722;-80
2023/12/17 01:16:13;;;;;;;14.97;5.17;;;;;;;;;;5101354;28;20106;-80
2023/12/17 01:18:41;;;;;;;13.33;5.60;;;;;;;;;;5097990;28;20841;-80
2023/12/17 01:21:07;;;;;;;15.33;6.10;;;;;;;;;;5099951;28;20467;-79
2023/12/17 01:23:33;;;;;;;17.50;5.50;;;;;;;;;;5103651;28;20028;-80
2023/12/17 01:25:59;;;;;;;15.17;5.33;;;;;;;;;;5089017;28;20028;-79
2023/12/17 01:28:27;;;;;;;14.70;5.33;;;;;;;;;;5085666;28;20403;-81
2023/12/17 01:30:56;;;;;;;10.10;4.67;;;;;;;;;;5099733;28;20214;-80
2023/12/17 01:33:22;;;;;;;15.10;4.53;;;;;;;;;;5096504;28;20032;-79
2023/12/17 01:35:48;;;;;;;11.33;5.30;;;;;;;;;;5097703;28;20123;-80
2023/12/17 01:38:14;;;;;;;9.80;4.23;;;;;;;;;;5104087;28;20053;-80
2023/12/17 01:40:40;;;;;;;13.67;4.90;;;;;;;;;;5098959;28;20493;-80
2023/12/17 01:43:09;;;;;;;14.07;5.67;;;;;;;;;;5097377;28;20142;-81
2023/12/17 01:45:37;;;;;;;14.27;5.73;;;;;;;;;;5086110;28;20433;-79
2023/12/17 01:48:03;;;;;;;12.53;5.27;;;;;;;;;;5098006;28;20021;-80
2023/12/17 01:50:30;;;;;;;9.33;5.20;;;;;;;;;;5099078;28;20055;-80
2023/12/17 01:52:56;;;;;;;7.23;4.53;;;;;;;;;;5097076;28;20043;-81
2023/12/17 01:55:22;;;;;;;10.17;4.67;;;;;;;;;;5096720;28;20028;-80
2023/12/17 01:57:48;;;;;;;11.77;4.33;;;;;;;;;;5100004;28;20034;-80
2023/12/17 02:00:14;;;;;;;9.67;4.17;;;;;;;;;;5100658;28;20449;-80
2023/12/17 02:02:40;;;;;;;8.03;4.30;;;;;;;;;;5088846;28;20079;-80
2023/12/17 02:05:07;;;;;;;10.57;4.20;;;;;;;;;;5102806;28;20347;-80
2023/12/17 02:07:33;;;;;;;9.57;4.87;;;;;;;;;;5083676;28;20024;-80
2023/12/17 02:09:59;;;;;;;11.70;4.30;;;;;;;;;;5099289;28;20130;-80
2023/12/17 02:12:29;;;;;;;8.07;4.20;;;;;;;;;;5102401;28;20027;-80
2023/12/17 02:14:55;;;;;;;8.20;3.83;;;;;;;;;;5101184;28;20024;-80
2023/12/17 02:17:39;;;;;;;6.13;3.47;;;;;;;;;;5088956;28;20498;-80
2023/12/17 02:20:06;;;;;;;7.47;3.33;;;;;;;;;;5101305;28;20040;-81
2023/12/17 02:22:36;;;;;;;8.63;4.00;;;;;;;;;;5089186;28;20089;-80
2023/12/17 02:25:02;;;;;;;7.83;4.00;;;;;;;;;;5102475;28;20432;-80
2023/12/17 02:27:28;;;;;;;7.53;4.37;;;;;;;;;;5085858;28;20035;-80
2023/12/17 02:29:55;;;;;;;9.83;3.57;;;;;;;;;;5100801;28;20033;-79
2023/12/17 02:32:22;;;;;;;9.00;4.20;;;;;;;;;;5097910;28;20025;-79
2023/12/17 02:34:48;;;;;;;7.13;3.83;;;;;;;;;;5097915;28;20070;-80
2023/12/17 02:37:14;;;;;;;6.87;3.63;;;;;;;;;;5102789;28;20476;-79
2023/12/17 02:39:40;;;;;;;8.50;3.60;;;;;;;;;;5102183;28;20032;-80
2023/12/17 02:42:07;;;;;;;7.57;4.10;;;;;;;;;;5103034;28;20349;-80
2023/12/17 02:44:35;;;;;;;5.40;3.60;;;;;;;;;;5081083;28;20051;-81
2023/12/17 02:47:04;;;;;;;6.83;4.37;;;;;;;;;;5079958;28;20123;-79
2023/12/17 02:49:31;;;;;;;8.23;4.57;;;;;;;;;;5101399;28;20040;-80
2023/12/17 02:51:57;;;;;;;13.73;4.83;;;;;;;;;;5098392;28;20042;-80
2023/12/17 02:54:26;;;;;;;7.83;4.47;;;;;;;;;;5081275;28;20101;-80
2023/12/17 02:56:52;;;;;;;8.40;4.63;;;;;;;;;;5098343;28;20483;-80
2023/12/17 02:59:20;;;;;;;11.40;5.30;;;;;;;;;;5100773;28;20028;-78
2023/12/17 03:01:46;;;;;;;14.23;5.23;;;;;;;;;;5103401;28;20093;-80
2023/12/17 03:04:12;;;;;;;9.27;4.70;;;;;;;;;;5095760;28;20055;-80
2023/12/17 03:06:39;;;;;;;8.97;5.27;;;;;;;;;;5098253;28;20036;-79
2023/12/17 03:09:08;;;;;;;12.87;4.90;;;;;;;;;;5099447;28;20036;-80
2023/12/17 03:11:34;;;;;;;12.03;5.37;;;;;;;;;;5096989;28;20349;-80
2023/12/17 03:14:00;;;;;;;8.03;4.77;;;;;;;;;;5099550;28;20029;-81
2023/12/17 03:16:28;;;;;;;7.17;4.40;;;;;;;;;;5084172;28;20039;-80
2023/12/17 03:18:59;;;;;;;8.90;4.73;;;;;;;;;;5097015;28;20036;-80
2023/12/17 03:21:26;;;;;;;10.20;4.63;;;;;;;;;;5100495;28;20016;-79
2023/12/17 03:23:53;;;;;;;8.27;4.77;;;;;;;;;;5094949;28;20052;-80
2023/12/17 03:26:19;;;;;;;7.97;4.27;;;;;;;;;;5097773;28;20034;-80
2023/12/17 03:28:45;;;;;;;10.37;4.20;;;;;;;;;;5101697;28;20103;-80
2023/12/17 03:31:15;;;;;;;10.77;4.20;;;;;;;;;;5097788;28;20007;-80
2023/12/17 03:33:42;;;;;;;12.90;5.03;;;;;;;;;;5100727;28;20103;-80
2023/12/17 03:36:08;;;;;;;9.70;5.57;;;;;;;;;;5084179;28;20042;-80
2023/12/17 03:38:36;;;;;;;9.67;4.90;;;;;;;;;;5099877;28;20028;-80
2023/12/17 03:41:02;;;;;;;11.73;4.33;;;;;;;;;;5100989;28;20056;-80
2023/12/17 03:43:35;;;;;;;7.60;4.03;;;;;;;;;;5100477;28;20075;-79
2023/12/17 03:46:01;;;;;;;13.48;4.93;;;;;;;;;;5100879;28;20048;-79
2023/12/17 03:48:27;;;;;;;10.47;3.80;;;;;;;;;;5083552;28;20051;-80
2023/12/17 03:50:53;;;;;;;8.47;4.27;;;;;;;;;;5080854;28;20119;-80
2023/12/17 03:53:19;;;;;;;7.80;4.53;;;;;;;;;;5080791;28;20096;-80
2023/12/17 03:55:45;;;;;;;8.70;4.60;;;;;;;;;;5082905;28;20025;-79
2023/12/17 03:58:11;;;;;;;7.80;4.60;;;;;;;;;;5082735;28;20024;-80
2023/12/17 04:00:37;;;;;;;5.67;3.83;;;;;;;;;;5086303;28;20029;-80
2023/12/17 04:03:03;;;;;;;8.77;4.33;;;;;;;;;;5084323;28;20028;-80
2023/12/17 04:05:29;;;;;;;7.13;3.97;;;;;;;;;;5097267;28;20630;-80
2023/12/17 04:07:55;;;;;;;8.10;3.77;;;;;;;;;;5100620;28;20028;-79
2023/12/17 04:10:21;;;;;;;7.47;3.53;;;;;;;;;;5101285;28;20039;-80
2023/12/17 04:12:47;;;;;;;9.43;3.57;;;;;;;;;;5101148;28;20025;-81
2023/12/17 04:15:15;;;;;;;6.60;3.13;;;;;;;;;;5097722;28;20058;-80
2023/12/17 04:17:41;;;;;;;6.70;3.37;;;;;;;;;;5090421;28;20026;-80
2023/12/17 04:20:07;;;;;;;5.13;3.33;;;;;;;;;;5103557;28;20124;-80
2023/12/17 04:22:33;;;;;;;4.47;3.23;;;;;;;;;;5103213;28;20029;-80
2023/12/17 04:25:02;;;;;;;7.57;3.10;;;;;;;;;;5103476;28;20031;-80
2023/12/17 04:27:30;;;;;;;5.60;3.33;;;;;;;;;;5087861;28;20096;-81
2023/12/17 04:29:56;;;;;;;5.10;3.37;;;;;;;;;;5101015;27;20028;-80
2023/12/17 04:32:22;;;;;;;5.10;2.90;;;;;;;;;;5098747;28;20499;-79
2023/12/17 04:34:49;;;;;;;4.63;3.13;;;;;;;;;;5085403;28;20115;-80
2023/12/17 04:37:17;;;;;;;8.27;3.53;;;;;;;;;;5105388;28;20036;-81
2023/12/17 04:39:43;;;;;;;6.00;3.00;;;;;;;;;;5101953;28;20028;-80
2023/12/17 04:42:09;;;;;;;5.00;2.87;;;;;;;;;;5111629;27;20042;-79
2023/12/17 04:44:35;;;;;;;7.97;3.40;;;;;;;;;;5105543;28;20459;-80
2023/12/17 04:47:01;;;;;;;4.97;2.90;;;;;;;;;;5111105;28;20032;-80
2023/12/17 04:49:27;;;;;;;5.70;3.13;;;;;;;;;;5111584;28;20535;-80
2023/12/17 04:51:53;;;;;;;7.43;3.40;;;;;;;;;;5115271;28;20107;-80
2023/12/17 04:54:19;;;;;;;4.70;3.60;;;;;;;;;;5098171;28;20150;-79
2023/12/17 04:56:45;;;;;;;7.07;3.80;;;;;;;;;;5098207;28;20024;-79
2023/12/17 04:59:11;;;;;;;5.03;3.37;;;;;;;;;;5111185;28;20044;-79
2023/12/17 05:01:37;;;;;;;8.10;3.37;;;;;;;;;;5097539;28;20550;-80
2023/12/17 05:04:05;;;;;;;6.77;3.33;;;;;;;;;;5114009;28;20106;-79
2023/12/17 05:06:31;;;;;;;6.83;3.20;;;;;;;;;;5107894;27;20119;-80
2023/12/17 05:08:57;;;;;;;6.30;3.47;;;;;;;;;;5088647;28;20091;-79
2023/12/17 05:11:23;;;;;;;6.07;2.80;;;;;;;;;;5108530;28;20369;-80
2023/12/17 05:13:49;;;;;;;6.57;3.23;;;;;;;;;;5102079;28;20016;-80
2023/12/17 05:16:15;;;;;;;7.63;3.60;;;;;;;;;;5094562;28;20142;-80
2023/12/17 05:18:41;;;;;;;5.13;3.53;;;;;;;;;;5091020;28;20056;-81
2023/12/17 05:21:07;;;;;;;6.27;3.07;;;;;;;;;;5099298;28;20085;-79
2023/12/17 05:23:33;;;;;;;5.37;2.80;;;;;;;;;;5115222;28;20475;-79
2023/12/17 05:25:59;;;;;;;7.43;2.57;;;;;;;;;;5099919;28;20024;-80
2023/12/17 05:28:27;;;;;;;6.53;3.13;;;;;;;;;;5096884;28;20330;-80
2023/12/17 05:30:53;;;;;;;5.67;2.73;;;;;;;;;;5097669;28;20155;-80
2023/12/17 05:33:19;;;;;;;4.20;2.40;;;;;;;;;;5092677;28;20052;-81
2023/12/17 05:35:45;;;;;;;4.27;2.70;;;;;;;;;;5106032;28;20012;-79
2023/12/17 05:38:11;;;;;;;5.53;2.53;;;;;;;;;;5097371;28;20031;-79
2023/12/17 05:40:37;;;;;;;4.10;2.60;;;;;;;;;;5086637;28;20114;-80
2023/12/17 05:43:08;;;;;;;4.93;2.37;;;;;;;;;;5114342;28;20112;-80
2023/12/17 05:45:36;;;;;;;6.00;2.70;;;;;;;;;;5094510;28;20029;-80
2023/12/17 05:48:05;;;;;;;4.10;2.50;;;;;;;;;;5106244;28;20028;-79
2023/12/17 05:50:31;;;;;;;2.73;1.77;;;;;;;;;;5094723;28;20058;-80
2023/12/17 05:52:56;;;;;;;5.03;2.17;;;;;;;;;;5105517;28;20497;-80
2023/12/17 05:55:22;;;;;;;4.50;2.53;;;;;;;;;;5099618;28;20078;-80
2023/12/17 05:57:50;;;;;;;6.10;2.47;;;;;;;;;;5096708;28;20028;-79
2023/12/17 06:00:16;;;;;;;4.43;2.47;;;;;;;;;;5094557;28;20123;-79
2023/12/17 06:02:45;;;;;;;3.90;2.47;;;;;;;;;;5097257;28;20440;-80
2023/12/17 06:05:11;;;;;;;1.80;1.60;;;;;;;;;;5095968;28;20131;-79
2023/12/17 06:07:39;;;;;;;4.20;1.60;;;;;;;;;;5093960;28;20020;-79
2023/12/17 06:10:06;;;;;;;3.13;1.77;;;;;;;;;;5096457;28;20538;-79
2023/12/17 06:12:32;;;;;;;3.20;2.33;;;;;;;;;;5091690;28;20501;-79
2023/12/17 06:15:00;;;;;;;2.83;1.70;;;;;;;;;;5111597;28;20115;-80
2023/12/17 06:17:26;;;;;;;4.20;1.93;;;;;;;;;;5109027;28;20020;-80
2023/12/17 06:19:52;;;;;;;3.70;2.00;;;;;;;;;;5098135;28;20042;-80
2023/12/17 06:22:18;;;;;;;2.37;1.63;;;;;;;;;;5084701;28;20024;-79
2023/12/17 06:24:44;;;;;;;2.77;1.90;;;;;;;;;;5100144;28;20081;-80
2023/12/17 06:27:17;;;;;;;2.50;2.07;;;;;;;;;;5098737;28;20032;-79
2023/12/17 06:29:42;;;;;;;;;;;;;;;;;;5102354;28;20425;-80
2023/12/17 06:32:09;;;;;;;3.23;1.77;;;;;;;;;;5081505;28;21095;-80
2023/12/17 06:34:35;;;;;;;3.30;2.07;;;;;;;;;;5100173;28;20051;-79
2023/12/17 06:37:01;;;;;;;5.93;2.07;;;;;;;;;;5105595;28;20077;-80
2023/12/17 06:39:27;;;;;;;2.63;2.00;;;;;;;;;;5081251;28;20028;-80
2023/12/17 06:41:53;;;;;;;2.80;1.97;;;;;;;;;;5085613;28;20040;-80
2023/12/17 06:44:19;;;;;;;4.10;2.10;;;;;;;;;;5098320;28;20123;-79
2023/12/17 06:46:45;;;;;;;3.70;2.07;;;;;;;;;;5085810;28;20032;-81
2023/12/17 06:49:11;;;;;;;2.87;1.90;;;;;;;;;;5099783;28;20024;-80
2023/12/17 06:51:39;;;;;;;2.47;2.00;;;;;;;;;;5098572;27;20027;-80
2023/12/17 06:54:05;;;;;;;3.30;1.80;;;;;;;;;;5101714;28;20090;-80
2023/12/17 06:56:31;;;;;;;3.20;1.93;;;;;;;;;;5092351;28;20039;-80
2023/12/17 06:58:57;;;;;;;3.67;2.10;;;;;;;;;;5087110;28;20024;-80
2023/12/17 07:01:23;;;;;;;2.97;1.97;;;;;;;;;;5099433;28;21695;-79
2023/12/17 07:03:50;;;;;;;3.13;1.90;;;;;;;;;;5098673;28;20453;-78
2023/12/17 07:06:16;;;;;;;2.27;1.63;;;;;;;;;;5099332;28;20461;-80
2023/12/17 07:08:42;;;;;;;3.37;1.80;;;;;;;;;;5101113;28;20104;-80
2023/12/17 07:11:08;;;;;;;2.93;1.70;;;;;;;;;;5101652;28;20112;-79
2023/12/17 07:13:34;;;;;;;2.53;1.77;;;;;;;;;;5090992;28;20032;-80
2023/12/17 07:16:00;;;;;;;2.43;1.77;;;;;;;;;;5097214;28;20089;-79
2023/12/17 07:18:28;;;;;;;3.17;2.00;;;;;;;;;;5100550;27;20040;-80
2023/12/17 07:20:55;;;;;;;2.67;1.87;;;;;;;;;;5087299;28;20060;-80
2023/12/17 07:23:25;;;;;;;2.60;1.60;;;;;;;;;;5082931;28;20123;-80
2023/12/17 07:25:52;;;;;;;2.63;1.93;;;;;;;;;;5096663;28;20089;-80
2023/12/17 07:28:18;;;;;;;2.90;2.20;;;;;;;;;;5086936;28;20033;-80
2023/12/17 07:30:44;;;;;;;2.43;1.70;;;;;;;;;;5087012;28;20024;-80
2023/12/17 07:33:10;;;;;;;2.80;2.30;;;;;;;;;;5090806;28;20393;-80
2023/12/17 07:35:38;;;;;;;4.67;2.50;;;;;;;;;;5083767;28;20031;-80
2023/12/17 07:38:04;;;;;;;3.27;1.60;;;;;;;;;;5086375;28;20021;-80
2023/12/17 07:40:33;;;;;;;3.30;1.97;;;;;;;;;;5088150;28;20440;-80
2023/12/17 07:42:59;;;;;;;2.53;1.90;;;;;;;;;;5083523;28;20047;-80
2023/12/17 07:45:25;;;;;;;4.97;2.63;;;;;;;;;;5101157;28;20491;-80
2023/12/17 07:47:51;;;;;;;4.57;2.40;;;;;;;;;;5089156;28;20039;-80
2023/12/17 07:50:19;;;;;;;8.57;3.60;;;;;;;;;;5091993;28;20059;-80
2023/12/17 07:52:46;;;;;;;5.63;3.63;;;;;;;;;;5096604;28;20029;-80
2023/12/17 07:55:13;;;;;;;6.87;4.07;;;;;;;;;;5103610;28;20039;-79
2023/12/17 07:57:39;;;;;;;8.67;3.53;;;;;;;;;;5099642;28;20032;-79
2023/12/17 08:00:07;;;;;;;9.20;3.13;;;;;;;;;;5092765;28;20089;-80
2023/12/17 08:02:33;;;;;;;5.33;3.60;;;;;;;;;;5092239;28;20024;-80
2023/12/17 08:04:59;;;;;;;7.03;3.73;;;;;;;;;;5103840;28;20032;-80
2023/12/17 08:07:25;;;;;;;5.80;3.50;;;;;;;;;;5103533;28;20028;-79
2023/12/17 08:09:51;;;;;;;6.13;3.97;;;;;;;;;;5094758;28;20037;-80
2023/12/17 08:12:17;;;;;;;5.63;3.73;;;;;;;;;;5100217;28;20017;-80
2023/12/17 08:14:46;;;;;;;4.97;2.37;;;;;;;;;;5102068;28;20028;-80
2023/12/17 08:17:12;;;;;;;5.90;2.20;;;;;;;;;;5102883;28;20033;-80
2023/12/17 08:19:38;;;;;;;3.93;2.33;;;;;;;;;;5093107;28;20020;-79
2023/12/17 08:22:04;;;;;;;2.87;2.10;;;;;;;;;;5091933;28;20036;-80
2023/12/17 08:24:30;;;;;;;6.30;2.53;;;;;;;;;;5100403;28;20477;-80
2023/12/17 08:26:59;;;;;;;4.47;3.17;;;;;;;;;;5100105;28;20024;-79
2023/12/17 08:29:25;;;;;;;6.43;4.57;;;;;;;;;;5105406;28;20114;-79
2023/12/17 08:31:51;;;;;;;8.43;3.70;;;;;;;;;;5102524;28;20055;-80
2023/12/17 08:34:17;;;;;;;5.70;3.33;;;;;;;;;;5101665;28;20035;-79
2023/12/17 08:36:44;;;;;;;6.90;4.20;;;;;;;;;;5087925;28;20020;-80
2023/12/17 08:39:11;;;;;;;7.30;3.47;;;;;;;;;;5105966;28;20056;-80
2023/12/17 08:41:37;;;;;;;6.50;3.90;;;;;;;;;;5104669;28;20032;-80
2023/12/17 08:44:03;;;;;;;7.03;4.40;;;;;;;;;;5099534;28;20024;-80
2023/12/17 08:46:29;;;;;;;7.83;4.60;;;;;;;;;;5086345;28;20040;-79
2023/12/17 08:48:58;;;;;;;6.33;4.53;;;;;;;;;;5104163;28;20090;-81
2023/12/17 08:51:24;;;;;;;8.93;4.20;;;;;;;;;;5090255;28;20063;-81
2023/12/17 08:53:50;;;;;;;11.30;6.33;;;;;;;;;;5099751;28;20901;-79
2023/12/17 08:56:18;;;;;;;6.93;4.30;;;;;;;;;;5100780;28;20029;-80
2023/12/17 08:58:44;;;;;;;7.47;4.90;;;;;;;;;;5101786;28;20044;-80
2023/12/17 09:01:12;;;;;;;8.80;4.37;;;;;;;;;;5103112;28;20024;-79
2023/12/17 09:03:38;;;;;;;7.60;4.43;;;;;;;;;;5100603;28;20020;-80
2023/12/17 09:06:04;;;;;;;5.77;3.90;;;;;;;;;;5088583;28;20115;-79
2023/12/17 09:08:30;;;;;;;6.83;4.37;;;;;;;;;;5101752;28;20055;-80
2023/12/17 09:10:56;;;;;;;5.50;3.87;;;;;;;;;;5099765;28;20040;-80
2023/12/17 09:13:23;;;;;;;9.77;5.70;;;;;;;;;;5100790;28;20028;-80
2023/12/17 09:15:49;;;;;;;8.90;4.80;;;;;;;;;;5100162;27;20032;-79
2023/12/17 09:18:17;;;;;;;10.17;5.57;;;;;;;;;;5087350;28;20028;-80
2023/12/17 09:20:44;;;;;;;8.43;5.93;;;;;;;;;;5085751;28;20111;-80
2023/12/17 09:23:10;;;;;;;9.83;5.73;;;;;;;;;;5100519;28;21808;-80
2023/12/17 09:25:36;;;;;;;11.47;6.47;;;;;;;;;;5103064;28;20039;-80
2023/12/17 09:28:02;;;;;;;12.73;8.13;;;;;;;;;;5087751;28;20051;-80
2023/12/17 09:30:30;;;;;;;16.07;8.90;;;;;;;;;;5084512;28;20100;-79
2023/12/17 09:32:59;;;;;;;17.00;8.77;;;;;;;;;;5085118;28;20028;-81
2023/12/17 09:35:25;;;;;;;14.43;7.63;;;;;;;;;;5089275;28;20049;-80
2023/12/17 09:37:51;;;;;;;11.80;6.90;;;;;;;;;;5087738;28;20108;-80
2023/12/17 09:40:17;;;;;;;10.93;6.60;;;;;;;;;;5083039;28;20443;-80
2023/12/17 09:42:43;;;;;;;11.37;6.60;;;;;;;;;;5099206;28;20025;-80
2023/12/17 09:45:14;;;;;;;11.33;6.43;;;;;;;;;;5100075;28;20058;-80
2023/12/17 09:47:40;;;;;;;11.10;7.13;;;;;;;;;;5089894;28;20032;-80
2023/12/17 09:50:09;;;;;;;10.87;7.23;;;;;;;;;;5082149;28;20097;-80
2023/12/17 09:52:39;;;;;;;12.67;8.17;;;;;;;;;;5101869;28;20038;-80
2023/12/17 09:55:05;;;;;;;17.33;9.17;;;;;;;;;;5101870;28;20230;-80
2023/12/17 09:57:31;;;;;;;15.33;8.87;;;;;;;;;;5104996;28;20043;-79
2023/12/17 10:00:00;;;;;;;13.03;7.00;;;;;;;;;;5087562;28;20024;-80
2023/12/17 10:02:26;;;;;;;12.03;7.60;;;;;;;;;;5100114;28;20044;-80
2023/12/17 10:04:52;;;;;;;11.33;7.77;;;;;;;;;;5100961;28;20024;-80
2023/12/17 10:07:18;;;;;;;12.07;8.13;;;;;;;;;;5100808;28;20032;-80
2023/12/17 10:09:44;;;;;;;13.40;8.07;;;;;;;;;;5100695;28;20032;-80
2023/12/17 10:12:10;;;;;;;13.27;8.97;;;;;;;;;;5086192;28;20334;-80
2023/12/17 10:14:36;;;;;;;13.03;8.27;;;;;;;;;;5100245;28;20024;-80
2023/12/17 10:17:02;;;;;;;15.30;9.33;;;;;;;;;;5100850;28;20115;-80
2023/12/17 10:19:28;;;;;;;14.20;8.50;;;;;;;;;;5099822;28;20056;-79
2023/12/17 10:21:54;;;;;;;10.10;6.60;;;;;;;;;;5101005;28;20028;-79
2023/12/17 10:24:35;;;;;;;11.67;7.47;;;;;;;;;;5083432;28;20103;-80
2023/12/17 10:27:05;;;;;;;11.17;7.17;;;;;;;;;;5096564;28;20032;-80
2023/12/17 10:29:32;;;;;;;10.33;6.77;;;;;;;;;;5102960;28;20124;-80
2023/12/17 10:31:58;;;;;;;10.63;6.83;;;;;;;;;;5104797;28;20115;-80
2023/12/17 10:34:28;;;;;;;8.87;6.27;;;;;;;;;;5095091;28;20028;-80
2023/12/17 10:36:54;;;;;;;10.97;7.13;;;;;;;;;;5083735;28;20035;-80
2023/12/17 10:39:20;;;;;;;8.70;5.90;;;;;;;;;;5099055;28;20024;-80
2023/12/17 10:41:51;;;;;;;8.67;5.70;;;;;;;;;;5103565;28;20032;-80
2023/12/17 10:44:20;;;;;;;9.37;5.37;;;;;;;;;;5097377;28;20024;-82
2023/12/17 10:46:46;;;;;;;7.80;4.60;;;;;;;;;;5099551;28;20028;-80
2023/12/17 10:49:12;;;;;;;6.00;4.33;;;;;;;;;;5106844;28;20107;-80
2023/12/17 10:51:39;;;;;;;6.90;5.10;;;;;;;;;;5104636;28;20013;-80
2023/12/17 10:54:11;;;;;;;7.40;4.57;;;;;;;;;;5095071;28;20016;-79
2023/12/17 10:56:39;;;;;;;6.00;3.63;;;;;;;;;;5090774;28;20031;-80
2023/12/17 10:59:07;;;;;;;7.00;4.23;;;;;;;;;;5108351;28;20052;-79
2023/12/17 11:01:39;;;;;;;5.90;4.13;;;;;;;;;;5095466;28;20032;-79
2023/12/17 11:04:05;;;;;;;8.23;5.05;;;;;;;;;;5104054;28;20033;-80
2023/12/17 11:06:31;;;;;;;5.37;3.93;;;;;;;;;;5086107;28;20024;-80
2023/12/17 11:08:57;;;;;;;7.27;4.97;;;;;;;;;;5092238;28;20077;-79
2023/12/17 11:11:40;;;;;;;5.63;3.87;;;;;;;;;;5087823;28;20016;-79
2023/12/17 11:14:06;;;;;;;5.38;4.10;;;;;;;;;;5092229;28;20021;-79
2023/12/17 11:16:32;;;;;;;5.40;4.10;;;;;;;;;;5085071;28;20338;-79
2023/12/17 11:19:02;;;;;;;4.97;3.67;;;;;;;;;;5096435;28;20024;-80
2023/12/17 11:21:28;;;;;;;5.83;4.17;;;;;;;;;;5111106;28;20035;-79
2023/12/17 11:23:56;;;;;;;5.20;3.70;;;;;;;;;;5093196;28;20368;-80
2023/12/17 11:26:22;;;;;;;6.17;3.90;;;;;;;;;;5092582;28;20519;-80
2023/12/17 11:28:48;;;;;;;5.67;3.87;;;;;;;;;;5107490;28;20062;-81
2023/12/17 11:31:14;;;;;;;7.20;4.33;;;;;;;;;;5097426;28;20030;-80
2023/12/17 11:33:40;;;;;;;7.03;4.93;;;;;;;;;;5085335;28;20028;-80
2023/12/17 11:36:11;;;;;;;20.77;4.23;;;;;;;;;;5094942;28;20020;-81
2023/12/17 11:38:38;;;;;;;5.83;4.10;;;;;;;;;;5106795;28;20038;-81
2023/12/17 11:41:04;;;;;;;5.23;3.70;;;;;;;;;;5096695;28;20039;-81
2023/12/17 11:43:37;;;;;;;5.20;4.07;;;;;;;;;;5108186;28;20363;-81
2023/12/17 11:46:03;;;;;;;5.97;3.60;;;;;;;;;;5089642;28;20032;-81
2023/12/17 11:48:30;;;;;;;5.73;3.93;;;;;;;;;;5097456;28;20111;-81
2023/12/17 11:50:57;;;;;;;6.90;3.17;;;;;;;;;;5104389;28;20051;-81
2023/12/17 11:53:24;;;;;;;7.03;3.67;;;;;;;;;;5100459;28;20028;-81
2023/12/17 11:55:51;;;;;;;7.87;3.90;;;;;;;;;;5117902;28;20050;-82
2023/12/17 11:58:19;;;;;;;4.30;3.20;;;;;;;;;;5131583;28;20032;-81
2023/12/17 12:01:00;;;;;;;5.00;3.60;;;;;;;;;;5101888;28;20032;-82
2023/12/17 12:03:27;;;;;;;5.00;3.07;;;;;;;;;;5100928;28;20024;-81
2023/12/17 12:05:59;;;;;;;4.30;2.80;;;;;;;;;;5097398;28;20050;-82
2023/12/17 12:08:26;;;;;;;5.53;3.72;;;;;;;;;;5103663;28;20032;-82
2023/12/17 12:10:52;;;;;;;6.87;3.43;;;;;;;;;;5101453;28;20093;-81
2023/12/17 12:13:18;;;;;;;5.00;3.07;;;;;;;;;;5102657;28;20048;-82
2023/12/17 12:15:47;;;;;;;4.60;3.33;;;;;;;;;;5113901;28;20023;-82
2023/12/17 12:18:22;;;;;;;4.53;2.97;;;;;;;;;;5096148;28;20035;-77
2023/12/17 12:20:51;;;;;;;4.73;3.20;;;;;;;;;;5115759;27;20031;-79
2023/12/17 12:23:17;;;;;;;4.40;3.23;;;;;;;;;;5116776;27;20028;-79
2023/12/17 12:25:48;;;;;;;5.20;3.53;;;;;;;;;;5116822;27;20051;-80
2023/12/17 12:28:20;;;;;;;4.27;3.20;;;;;;;;;;5118998;27;20020;-79
2023/12/17 12:30:50;;;;;;;5.07;3.05;;;;;;;;;;5117133;27;20036;-76
2023/12/17 12:33:18;;;;;;;5.40;3.33;;;;;;;;;;5112242;27;20032;-82
2023/12/17 12:36:04;;;;;;;4.80;2.87;;;;;;;;;;5111266;28;20185;-82
2023/12/17 12:38:30;;;;;;;5.40;2.97;;;;;;;;;;5114324;28;20033;-81
2023/12/17 12:40:56;;;;;;;7.23;3.07;;;;;;;;;;5116129;28;20122;-81
2023/12/17 12:43:23;;;;;;;4.20;3.30;;;;;;;;;;5114749;28;20599;-82
2023/12/17 12:45:50;;;;;;;4.37;2.90;;;;;;;;;;5109636;28;20126;-81
2023/12/17 12:48:17;;;;;;;6.70;2.87;;;;;;;;;;5109452;28;20062;-81
2023/12/17 12:50:43;;;;;;;6.17;3.07;;;;;;;;;;5114382;28;20036;-81
2023/12/17 12:53:12;;;;;;;4.93;3.20;;;;;;;;;;5097941;28;20093;-80
2023/12/17 12:55:38;;;;;;;8.17;3.03;;;;;;;;;;5107629;28;20353;-81
2023/12/17 12:58:05;;;;;;;6.43;2.83;;;;;;;;;;5105778;28;20033;-81
2023/12/17 13:00:31;;;;;;;5.77;3.40;;;;;;;;;;5106218;28;20029;-81
2023/12/17 13:02:56;;;;;;;8.83;4.47;;;;;;;;;;5104597;28;20043;-81
2023/12/17 13:05:23;;;;;;;5.93;3.60;;;;;;;;;;5105657;28;20360;-81
2023/12/17 13:07:52;;;;;;;7.17;3.53;;;;;;;;;;5100032;28;20035;-81
2023/12/17 13:10:18;;;;;;;5.77;2.90;;;;;;;;;;5109349;28;20028;-81
2023/12/17 13:12:44;;;;;;;5.57;3.90;;;;;;;;;;5106353;28;20131;-81
2023/12/17 13:15:10;;;;;;;9.07;4.23;;;;;;;;;;5106961;28;20138;-81
2023/12/17 13:17:36;;;;;;;4.50;3.97;;;;;;;;;;5106282;28;20032;-81
2023/12/17 13:20:03;;;;;;;7.83;3.97;;;;;;;;;;5103746;28;20024;-81
2023/12/17 13:22:29;;;;;;;8.80;4.40;;;;;;;;;;5105972;28;20031;-81
2023/12/17 13:24:55;;;;;;;6.30;4.43;;;;;;;;;;5094769;28;20193;-81
2023/12/17 13:27:21;;;;;;;8.93;4.40;;;;;;;;;;5109511;28;20050;-81
2023/12/17 13:29:47;;;;;;;6.97;3.93;;;;;;;;;;5100203;28;20039;-81
2023/12/17 13:32:14;;;;;;;7.00;4.53;;;;;;;;;;5103230;28;20032;-81
2023/12/17 13:34:42;;;;;;;6.07;4.20;;;;;;;;;;5105944;28;20126;-80
2023/12/17 13:37:09;;;;;;;5.67;3.80;;;;;;;;;;5107904;28;20028;-81
2023/12/17 13:39:38;;;;;;;5.87;4.07;;;;;;;;;;5111275;28;20035;-81
2023/12/17 13:42:04;;;;;;;5.60;3.80;;;;;;;;;;5108147;28;20039;-82
2023/12/17 13:44:30;;;;;;;6.93;4.17;;;;;;;;;;5108623;28;20024;-81
2023/12/17 13:46:57;;;;;;;5.90;3.73;;;;;;;;;;5102485;28;20032;-82
2023/12/17 13:49:23;;;;;;;6.10;4.40;;;;;;;;;;5102940;28;20458;-82
2023/12/17 13:51:49;;;;;;;6.90;4.20;;;;;;;;;;5107654;28;20033;-81
2023/12/17 13:54:15;;;;;;;6.73;3.63;;;;;;;;;;5096330;28;20055;-81
2023/12/17 13:56:41;;;;;;;5.03;3.07;;;;;;;;;;5103563;28;20040;-82
2023/12/17 13:59:08;;;;;;;4.77;2.90;;;;;;;;;;5094829;28;20597;-82
2023/12/17 14:01:35;;;;;;;3.47;2.60;;;;;;;;;;5110550;28;20029;-81
2023/12/17 14:04:01;;;;;;;4.27;2.70;;;;;;;;;;5098826;28;20505;-81
2023/12/17 14:06:27;;;;;;;4.80;2.80;;;;;;;;;;5097631;28;20042;-81
2023/12/17 14:08:55;;;;;;;4.30;3.07;;;;;;;;;;5105613;28;20040;-81
2023/12/17 14:11:21;;;;;;;5.57;3.57;;;;;;;;;;5106262;28;20035;-81
2023/12/17 14:13:47;;;;;;;3.60;2.90;;;;;;;;;;5100088;28;20024;-81
2023/12/17 14:16:21;;;;;;;6.33;3.23;;;;;;;;;;5108131;28;20031;-82
2023/12/17 14:18:48;;;;;;;4.77;3.20;;;;;;;;;;5104045;28;20206;-81
2023/12/17 14:21:15;;;;;;;6.10;4.07;;;;;;;;;;5103754;28;20085;-81
2023/12/17 14:23:41;;;;;;;3.97;3.07;;;;;;;;;;5105052;28;20044;-82
2023/12/17 14:26:08;;;;;;;5.57;3.27;;;;;;;;;;5106430;28;20036;-81
2023/12/17 14:28:34;;;;;;;5.30;3.07;;;;;;;;;;5098265;28;20047;-82
2023/12/17 14:31:00;;;;;;;4.17;2.70;;;;;;;;;;5101816;28;20031;-81
2023/12/17 14:33:26;;;;;;;5.10;2.97;;;;;;;;;;5095271;28;20024;-81
2023/12/17 14:35:53;;;;;;;4.40;3.17;;;;;;;;;;5100878;28;20020;-82
2023/12/17 14:38:19;;;;;;;5.33;3.30;;;;;;;;;;5105976;28;20023;-82